sensor_id;sensor_type;location;lat;lon;timestamp;pressure;altitude;pressure_sealevel;temperature
48894;BMP280;34710;35.798;139.446;2022-10-15T00:01:37;100937.18;;;24.96
48894;BMP280;34710;35.798;139.446;2022-10-15T00:04:07;100935.45;;;24.54
48894;BMP280;34710;35.798;139.446;2022-10-15T00:06:36;100934.14;;;24.89
48894;BMP280;34710;35.798;139.446;2022-10-15T00:09:05;100932.65;;;25.19
48894;BMP280;34710;35.798;139.446;2022-10-15T00:11:35;100931.20;;;25.38
48894;BMP280;34710;35.798;139.446;2022-10-15T00:14:04;100932.77;;;25.48
48894;BMP280;34710;35.798;139.446;2022-10-15T00:16:33;100932.39;;;25.87
48894;BMP280;34710;35.798;139.446;2022-10-15T00:19:03;100929.27;;;25.85
48894;BMP280;34710;35.798;139.446;2022-10-15T00:21:33;100924.12;;;25.45
48894;BMP280;34710;35.798;139.446;2022-10-15T00:24:02;100921.74;;;25.82
48894;BMP280;34710;35.798;139.446;2022-10-15T00:26:32;100918.92;;;25.68
48894;BMP280;34710;35.798;139.446;2022-10-15T00:29:03;100915.97;;;25.85
48894;BMP280;34710;35.798;139.446;2022-10-15T00:31:32;100906.39;;;25.44
48894;BMP280;34710;35.798;139.446;2022-10-15T00:34:02;100906.49;;;26.23
48894;BMP280;34710;35.798;139.446;2022-10-15T00:36:33;100898.85;;;26.41
48894;BMP280;34710;35.798;139.446;2022-10-15T00:39:04;100894.61;;;27.05
48894;BMP280;34710;35.798;139.446;2022-10-15T00:41:37;100891.75;;;27.67
48894;BMP280;34710;35.798;139.446;2022-10-15T00:45:01;100890.91;;;28.23
48894;BMP280;34710;35.798;139.446;2022-10-15T00:47:36;100882.91;;;28.18
48894;BMP280;34710;35.798;139.446;2022-10-15T00:50:09;100883.42;;;29.10
48894;BMP280;34710;35.798;139.446;2022-10-15T00:52:44;100879.80;;;29.52
48894;BMP280;34710;35.798;139.446;2022-10-15T00:55:17;100880.70;;;29.57
48894;BMP280;34710;35.798;139.446;2022-10-15T00:57:48;100874.73;;;29.55
48894;BMP280;34710;35.798;139.446;2022-10-15T01:00:19;100875.67;;;29.46
48894;BMP280;34710;35.798;139.446;2022-10-15T01:02:48;100872.78;;;29.34
48894;BMP280;34710;35.798;139.446;2022-10-15T01:05:18;100871.21;;;29.00
48894;BMP280;34710;35.798;139.446;2022-10-15T01:07:48;100870.13;;;28.81
48894;BMP280;34710;35.798;139.446;2022-10-15T01:10:18;100868.40;;;28.97
48894;BMP280;34710;35.798;139.446;2022-10-15T01:12:56;100863.84;;;29.08
48894;BMP280;34710;35.798;139.446;2022-10-15T01:15:31;100859.66;;;29.23
48894;BMP280;34710;35.798;139.446;2022-10-15T01:18:05;100861.02;;;29.09
48894;BMP280;34710;35.798;139.446;2022-10-15T01:20:48;100859.03;;;29.71
48894;BMP280;34710;35.798;139.446;2022-10-15T01:24:31;100853.17;;;30.42
48894;BMP280;34710;35.798;139.446;2022-10-15T01:27:17;100854.77;;;30.05
48894;BMP280;34710;35.798;139.446;2022-10-15T01:30:20;100852.56;;;29.61
48894;BMP280;34710;35.798;139.446;2022-10-15T01:32:59;100853.38;;;30.20
48894;BMP280;34710;35.798;139.446;2022-10-15T01:35:42;100854.32;;;29.93
48894;BMP280;34710;35.798;139.446;2022-10-15T01:38:21;100853.63;;;29.81
48894;BMP280;34710;35.798;139.446;2022-10-15T01:40:55;100850.05;;;29.31
48894;BMP280;34710;35.798;139.446;2022-10-15T01:43:31;100842.61;;;29.73
48894;BMP280;34710;35.798;139.446;2022-10-15T01:46:07;100843.39;;;29.38
48894;BMP280;34710;35.798;139.446;2022-10-15T01:48:39;100842.07;;;29.21
48894;BMP280;34710;35.798;139.446;2022-10-15T01:51:10;100837.68;;;28.93
48894;BMP280;34710;35.798;139.446;2022-10-15T01:53:42;100836.61;;;29.12
48894;BMP280;34710;35.798;139.446;2022-10-15T01:56:16;100835.34;;;28.75
48894;BMP280;34710;35.798;139.446;2022-10-15T01:58:49;100833.85;;;28.80
48894;BMP280;34710;35.798;139.446;2022-10-15T02:01:21;100829.61;;;28.81
48894;BMP280;34710;35.798;139.446;2022-10-15T02:03:51;100827.12;;;28.67
48894;BMP280;34710;35.798;139.446;2022-10-15T02:06:24;100825.62;;;28.59
48894;BMP280;34710;35.798;139.446;2022-10-15T02:09:02;100826.29;;;28.57
48894;BMP280;34710;35.798;139.446;2022-10-15T02:11:46;100826.34;;;28.20
48894;BMP280;34710;35.798;139.446;2022-10-15T02:14:28;100821.58;;;28.30
48894;BMP280;34710;35.798;139.446;2022-10-15T02:17:08;100818.98;;;27.94
48894;BMP280;34710;35.798;139.446;2022-10-15T02:19:46;100817.63;;;27.91
48894;BMP280;34710;35.798;139.446;2022-10-15T02:22:21;100814.78;;;27.58
48894;BMP280;34710;35.798;139.446;2022-10-15T02:24:56;100815.26;;;27.65
48894;BMP280;34710;35.798;139.446;2022-10-15T02:27:27;100814.67;;;27.83
48894;BMP280;34710;35.798;139.446;2022-10-15T02:30:02;100814.17;;;28.01
48894;BMP280;34710;35.798;139.446;2022-10-15T02:32:33;100814.57;;;28.02
48894;BMP280;34710;35.798;139.446;2022-10-15T02:35:03;100811.30;;;28.00
48894;BMP280;34710;35.798;139.446;2022-10-15T02:37:35;100810.95;;;28.13
48894;BMP280;34710;35.798;139.446;2022-10-15T02:40:05;100805.85;;;28.02
48894;BMP280;34710;35.798;139.446;2022-10-15T02:42:35;100809.85;;;28.13
48894;BMP280;34710;35.798;139.446;2022-10-15T02:45:05;100806.89;;;28.28
48894;BMP280;34710;35.798;139.446;2022-10-15T02:47:34;100809.80;;;28.28
48894;BMP280;34710;35.798;139.446;2022-10-15T02:50:05;100803.99;;;28.42
48894;BMP280;34710;35.798;139.446;2022-10-15T02:52:33;100800.88;;;28.00
48894;BMP280;34710;35.798;139.446;2022-10-15T02:55:03;100802.64;;;28.03
48894;BMP280;34710;35.798;139.446;2022-10-15T02:57:32;100800.74;;;28.11
48894;BMP280;34710;35.798;139.446;2022-10-15T03:00:02;100792.08;;;28.54
48894;BMP280;34710;35.798;139.446;2022-10-15T03:02:32;100791.16;;;28.87
48894;BMP280;34710;35.798;139.446;2022-10-15T03:05:01;100783.64;;;28.60
48894;BMP280;34710;35.798;139.446;2022-10-15T03:07:31;100783.57;;;28.64
48894;BMP280;34710;35.798;139.446;2022-10-15T03:10:00;100775.35;;;28.98
48894;BMP280;34710;35.798;139.446;2022-10-15T03:12:29;100769.35;;;29.49
48894;BMP280;34710;35.798;139.446;2022-10-15T03:14:58;100762.02;;;29.31
48894;BMP280;34710;35.798;139.446;2022-10-15T03:17:28;100754.70;;;29.71
48894;BMP280;34710;35.798;139.446;2022-10-15T03:19:57;100745.52;;;29.77
48894;BMP280;34710;35.798;139.446;2022-10-15T03:22:26;100739.09;;;30.58
48894;BMP280;34710;35.798;139.446;2022-10-15T03:24:56;100732.68;;;30.63
48894;BMP280;34710;35.798;139.446;2022-10-15T03:27:26;100728.54;;;31.50
48894;BMP280;34710;35.798;139.446;2022-10-15T03:29:55;100721.31;;;32.26
48894;BMP280;34710;35.798;139.446;2022-10-15T03:32:25;100718.99;;;32.87
48894;BMP280;34710;35.798;139.446;2022-10-15T03:34:54;100712.97;;;32.73
48894;BMP280;34710;35.798;139.446;2022-10-15T03:37:23;100708.31;;;32.99
48894;BMP280;34710;35.798;139.446;2022-10-15T03:39:53;100702.57;;;33.50
48894;BMP280;34710;35.798;139.446;2022-10-15T03:42:22;100699.77;;;33.83
48894;BMP280;34710;35.798;139.446;2022-10-15T03:44:51;100701.66;;;33.80
48894;BMP280;34710;35.798;139.446;2022-10-15T03:47:20;100697.87;;;33.58
48894;BMP280;34710;35.798;139.446;2022-10-15T03:49:50;100694.96;;;33.29
48894;BMP280;34710;35.798;139.446;2022-10-15T03:52:19;100692.79;;;33.51
48894;BMP280;34710;35.798;139.446;2022-10-15T03:54:48;100692.18;;;33.39
48894;BMP280;34710;35.798;139.446;2022-10-15T03:57:18;100690.43;;;33.90
48894;BMP280;34710;35.798;139.446;2022-10-15T03:59:47;100692.82;;;32.91
48894;BMP280;34710;35.798;139.446;2022-10-15T04:02:16;100695.40;;;33.35
48894;BMP280;34710;35.798;139.446;2022-10-15T04:04:46;100695.66;;;33.25
48894;BMP280;34710;35.798;139.446;2022-10-15T04:07:15;100694.63;;;33.39
48894;BMP280;34710;35.798;139.446;2022-10-15T04:09:45;100692.73;;;33.39
48894;BMP280;34710;35.798;139.446;2022-10-15T04:12:14;100691.83;;;32.77
48894;BMP280;34710;35.798;139.446;2022-10-15T04:14:44;100692.86;;;33.65
48894;BMP280;34710;35.798;139.446;2022-10-15T04:17:13;100691.64;;;33.53
48894;BMP280;34710;35.798;139.446;2022-10-15T04:19:42;100692.74;;;33.92
48894;BMP280;34710;35.798;139.446;2022-10-15T04:22:11;100694.73;;;33.88
48894;BMP280;34710;35.798;139.446;2022-10-15T04:24:41;100691.45;;;33.92
48894;BMP280;34710;35.798;139.446;2022-10-15T04:27:10;100694.69;;;33.81
48894;BMP280;34710;35.798;139.446;2022-10-15T04:29:39;100689.30;;;33.58
48894;BMP280;34710;35.798;139.446;2022-10-15T04:32:12;100688.85;;;33.81
48894;BMP280;34710;35.798;139.446;2022-10-15T04:34:41;100687.98;;;33.90
48894;BMP280;34710;35.798;139.446;2022-10-15T04:37:12;100685.60;;;34.06
48894;BMP280;34710;35.798;139.446;2022-10-15T04:39:41;100683.68;;;34.24
48894;BMP280;34710;35.798;139.446;2022-10-15T04:42:10;100680.72;;;33.77
48894;BMP280;34710;35.798;139.446;2022-10-15T04:44:39;100678.13;;;33.55
48894;BMP280;34710;35.798;139.446;2022-10-15T04:47:09;100678.44;;;33.60
48894;BMP280;34710;35.798;139.446;2022-10-15T04:49:38;100682.04;;;33.77
48894;BMP280;34710;35.798;139.446;2022-10-15T04:52:07;100685.41;;;34.34
48894;BMP280;34710;35.798;139.446;2022-10-15T04:54:37;100687.25;;;33.74
48894;BMP280;34710;35.798;139.446;2022-10-15T04:57:06;100693.80;;;33.88
48894;BMP280;34710;35.798;139.446;2022-10-15T04:59:35;100692.01;;;34.14
48894;BMP280;34710;35.798;139.446;2022-10-15T05:02:05;100693.96;;;34.21
48894;BMP280;34710;35.798;139.446;2022-10-15T05:04:34;100694.39;;;34.56
48894;BMP280;34710;35.798;139.446;2022-10-15T05:07:03;100697.27;;;34.09
48894;BMP280;34710;35.798;139.446;2022-10-15T05:09:32;100693.73;;;34.08
48894;BMP280;34710;35.798;139.446;2022-10-15T05:12:02;100693.87;;;33.88
48894;BMP280;34710;35.798;139.446;2022-10-15T05:14:31;100696.88;;;33.76
48894;BMP280;34710;35.798;139.446;2022-10-15T05:17:01;100696.41;;;33.06
48894;BMP280;34710;35.798;139.446;2022-10-15T05:19:31;100697.38;;;33.09
48894;BMP280;34710;35.798;139.446;2022-10-15T05:21:59;100694.93;;;32.69
48894;BMP280;34710;35.798;139.446;2022-10-15T05:24:29;100698.27;;;32.57
48894;BMP280;34710;35.798;139.446;2022-10-15T05:26:58;100696.31;;;32.52
48894;BMP280;34710;35.798;139.446;2022-10-15T05:29:27;100694.78;;;32.27
48894;BMP280;34710;35.798;139.446;2022-10-15T05:31:57;100698.97;;;32.46
48894;BMP280;34710;35.798;139.446;2022-10-15T05:34:27;100698.99;;;33.23
48894;BMP280;34710;35.798;139.446;2022-10-15T05:36:56;100702.19;;;33.27
48894;BMP280;34710;35.798;139.446;2022-10-15T05:39:26;100699.61;;;32.48
48894;BMP280;34710;35.798;139.446;2022-10-15T05:41:55;100697.89;;;32.12
48894;BMP280;34710;35.798;139.446;2022-10-15T05:44:24;100697.55;;;31.60
48894;BMP280;34710;35.798;139.446;2022-10-15T05:46:53;100697.06;;;30.89
48894;BMP280;34710;35.798;139.446;2022-10-15T05:49:23;100696.25;;;31.04
48894;BMP280;34710;35.798;139.446;2022-10-15T05:51:52;100694.76;;;31.66
48894;BMP280;34710;35.798;139.446;2022-10-15T05:54:22;100697.62;;;31.49
48894;BMP280;34710;35.798;139.446;2022-10-15T05:56:51;100696.94;;;31.97
48894;BMP280;34710;35.798;139.446;2022-10-15T05:59:20;100697.28;;;32.58
48894;BMP280;34710;35.798;139.446;2022-10-15T06:01:50;100699.75;;;33.25
48894;BMP280;34710;35.798;139.446;2022-10-15T06:04:19;100698.36;;;32.61
48894;BMP280;34710;35.798;139.446;2022-10-15T06:06:48;100696.18;;;31.39
48894;BMP280;34710;35.798;139.446;2022-10-15T06:09:18;100696.30;;;31.54
48894;BMP280;34710;35.798;139.446;2022-10-15T06:11:47;100703.09;;;31.94
48894;BMP280;34710;35.798;139.446;2022-10-15T06:14:17;100705.08;;;32.33
48894;BMP280;34710;35.798;139.446;2022-10-15T06:16:46;100706.82;;;31.80
48894;BMP280;34710;35.798;139.446;2022-10-15T06:19:15;100710.36;;;31.68
48894;BMP280;34710;35.798;139.446;2022-10-15T06:21:45;100714.51;;;31.33
48894;BMP280;34710;35.798;139.446;2022-10-15T06:24:14;100715.40;;;30.99
48894;BMP280;34710;35.798;139.446;2022-10-15T06:26:44;100719.82;;;30.30
48894;BMP280;34710;35.798;139.446;2022-10-15T06:29:13;100718.79;;;30.36
48894;BMP280;34710;35.798;139.446;2022-10-15T06:31:43;100714.60;;;30.93
48894;BMP280;34710;35.798;139.446;2022-10-15T06:34:12;100720.32;;;29.28
48894;BMP280;34710;35.798;139.446;2022-10-15T06:36:41;100719.30;;;29.73
48894;BMP280;34710;35.798;139.446;2022-10-15T06:39:11;100724.09;;;29.74
48894;BMP280;34710;35.798;139.446;2022-10-15T06:41:40;100729.64;;;29.85
48894;BMP280;34710;35.798;139.446;2022-10-15T06:44:09;100732.61;;;28.45
48894;BMP280;34710;35.798;139.446;2022-10-15T06:46:39;100732.21;;;28.33
48894;BMP280;34710;35.798;139.446;2022-10-15T06:49:08;100734.46;;;28.47
48894;BMP280;34710;35.798;139.446;2022-10-15T06:51:37;100735.55;;;28.72
48894;BMP280;34710;35.798;139.446;2022-10-15T06:54:06;100737.26;;;28.87
48894;BMP280;34710;35.798;139.446;2022-10-15T06:56:36;100741.09;;;29.45
48894;BMP280;34710;35.798;139.446;2022-10-15T06:59:05;100740.47;;;29.26
48894;BMP280;34710;35.798;139.446;2022-10-15T07:01:35;100738.37;;;29.49
48894;BMP280;34710;35.798;139.446;2022-10-15T07:04:05;100735.88;;;29.51
48894;BMP280;34710;35.798;139.446;2022-10-15T07:06:35;100737.84;;;29.46
48894;BMP280;34710;35.798;139.446;2022-10-15T07:09:04;100740.63;;;29.29
48894;BMP280;34710;35.798;139.446;2022-10-15T07:11:34;100741.71;;;29.39
48894;BMP280;34710;35.798;139.446;2022-10-15T07:14:04;100743.76;;;29.25
48894;BMP280;34710;35.798;139.446;2022-10-15T07:16:33;100745.82;;;29.22
48894;BMP280;34710;35.798;139.446;2022-10-15T07:19:02;100746.22;;;29.45
48894;BMP280;34710;35.798;139.446;2022-10-15T07:21:31;100746.57;;;29.32
48894;BMP280;34710;35.798;139.446;2022-10-15T07:24:01;100746.34;;;29.17
48894;BMP280;34710;35.798;139.446;2022-10-15T07:26:30;100752.39;;;28.86
48894;BMP280;34710;35.798;139.446;2022-10-15T07:29:00;100753.22;;;28.75
48894;BMP280;34710;35.798;139.446;2022-10-15T07:31:30;100752.62;;;28.83
48894;BMP280;34710;35.798;139.446;2022-10-15T07:33:59;100755.10;;;28.96
48894;BMP280;34710;35.798;139.446;2022-10-15T07:36:28;100760.26;;;29.04
48894;BMP280;34710;35.798;139.446;2022-10-15T07:38:58;100759.69;;;28.96
48894;BMP280;34710;35.798;139.446;2022-10-15T07:41:26;100760.00;;;28.65
48894;BMP280;34710;35.798;139.446;2022-10-15T07:43:56;100762.36;;;28.40
48894;BMP280;34710;35.798;139.446;2022-10-15T07:46:26;100762.02;;;28.54
48894;BMP280;34710;35.798;139.446;2022-10-15T07:48:55;100762.53;;;28.50
48894;BMP280;34710;35.798;139.446;2022-10-15T07:51:25;100764.54;;;28.38
48894;BMP280;34710;35.798;139.446;2022-10-15T07:53:54;100767.81;;;28.40
48894;BMP280;34710;35.798;139.446;2022-10-15T07:56:24;100772.10;;;28.38
48894;BMP280;34710;35.798;139.446;2022-10-15T07:58:53;100776.35;;;28.13
48894;BMP280;34710;35.798;139.446;2022-10-15T08:01:23;100778.39;;;28.07
48894;BMP280;34710;35.798;139.446;2022-10-15T08:03:53;100781.69;;;28.08
48894;BMP280;34710;35.798;139.446;2022-10-15T08:06:22;100786.08;;;27.88
48894;BMP280;34710;35.798;139.446;2022-10-15T08:08:51;100790.35;;;27.92
48894;BMP280;34710;35.798;139.446;2022-10-15T08:11:20;100795.97;;;27.91
48894;BMP280;34710;35.798;139.446;2022-10-15T08:13:52;100797.06;;;27.98
48894;BMP280;34710;35.798;139.446;2022-10-15T08:16:21;100800.18;;;27.85
48894;BMP280;34710;35.798;139.446;2022-10-15T08:18:50;100805.49;;;27.80
48894;BMP280;34710;35.798;139.446;2022-10-15T08:21:20;100809.33;;;27.66
48894;BMP280;34710;35.798;139.446;2022-10-15T08:23:50;100809.83;;;27.37
48894;BMP280;34710;35.798;139.446;2022-10-15T08:26:19;100814.68;;;27.56
48894;BMP280;34710;35.798;139.446;2022-10-15T08:28:48;100819.55;;;27.25
48894;BMP280;34710;35.798;139.446;2022-10-15T08:31:18;100825.80;;;26.98
48894;BMP280;34710;35.798;139.446;2022-10-15T08:33:47;100824.79;;;27.05
48894;BMP280;34710;35.798;139.446;2022-10-15T08:36:17;100825.53;;;27.11
48894;BMP280;34710;35.798;139.446;2022-10-15T08:38:46;100824.89;;;27.14
48894;BMP280;34710;35.798;139.446;2022-10-15T08:41:21;100827.18;;;27.19
48894;BMP280;34710;35.798;139.446;2022-10-15T08:43:53;100826.80;;;27.42
48894;BMP280;34710;35.798;139.446;2022-10-15T08:46:28;100826.38;;;27.38
48894;BMP280;34710;35.798;139.446;2022-10-15T08:49:00;100824.08;;;27.12
48894;BMP280;34710;35.798;139.446;2022-10-15T08:51:37;100826.80;;;27.34
48894;BMP280;34710;35.798;139.446;2022-10-15T08:54:14;100828.24;;;27.27
48894;BMP280;34710;35.798;139.446;2022-10-15T08:56:48;100833.46;;;27.30
48894;BMP280;34710;35.798;139.446;2022-10-15T08:59:27;100839.10;;;27.21
48894;BMP280;34710;35.798;139.446;2022-10-15T09:02:02;100844.09;;;27.24
48894;BMP280;34710;35.798;139.446;2022-10-15T09:04:35;100849.55;;;27.24
48894;BMP280;34710;35.798;139.446;2022-10-15T09:07:11;100849.39;;;27.16
48894;BMP280;34710;35.798;139.446;2022-10-15T09:09:46;100850.93;;;27.19
48894;BMP280;34710;35.798;139.446;2022-10-15T09:12:34;100855.02;;;26.93
48894;BMP280;34710;35.798;139.446;2022-10-15T09:15:11;100858.17;;;27.05
48894;BMP280;34710;35.798;139.446;2022-10-15T09:17:43;100862.86;;;26.76
48894;BMP280;34710;35.798;139.446;2022-10-15T09:20:18;100865.28;;;26.90
48894;BMP280;34710;35.798;139.446;2022-10-15T09:22:49;100869.10;;;26.95
48894;BMP280;34710;35.798;139.446;2022-10-15T09:25:20;100868.73;;;26.88
48894;BMP280;34710;35.798;139.446;2022-10-15T09:27:51;100873.11;;;26.96
48894;BMP280;34710;35.798;139.446;2022-10-15T09:30:31;100878.44;;;26.95
48894;BMP280;34710;35.798;139.446;2022-10-15T09:33:07;100881.11;;;26.73
48894;BMP280;34710;35.798;139.446;2022-10-15T09:35:42;100884.72;;;26.65
48894;BMP280;34710;35.798;139.446;2022-10-15T09:38:23;100887.00;;;26.67
48894;BMP280;34710;35.798;139.446;2022-10-15T09:41:06;100893.68;;;26.54
48894;BMP280;34710;35.798;139.446;2022-10-15T09:43:41;100896.95;;;26.81
48894;BMP280;34710;35.798;139.446;2022-10-15T09:46:12;100902.07;;;26.69
48894;BMP280;34710;35.798;139.446;2022-10-15T09:48:45;100905.70;;;26.66
48894;BMP280;34710;35.798;139.446;2022-10-15T09:51:22;100910.24;;;26.72
48894;BMP280;34710;35.798;139.446;2022-10-15T09:54:00;100914.15;;;26.68
48894;BMP280;34710;35.798;139.446;2022-10-15T09:56:35;100911.46;;;26.58
48894;BMP280;34710;35.798;139.446;2022-10-15T09:59:05;100909.92;;;26.45
48894;BMP280;34710;35.798;139.446;2022-10-15T10:01:35;100910.84;;;26.57
48894;BMP280;34710;35.798;139.446;2022-10-15T10:04:15;100914.03;;;26.04
48894;BMP280;34710;35.798;139.446;2022-10-15T10:06:49;100917.34;;;26.00
48894;BMP280;34710;35.798;139.446;2022-10-15T10:09:21;100917.81;;;26.20
48894;BMP280;34710;35.798;139.446;2022-10-15T10:11:53;100909.90;;;26.25
48894;BMP280;34710;35.798;139.446;2022-10-15T10:14:26;100912.43;;;26.28
48894;BMP280;34710;35.798;139.446;2022-10-15T10:17:29;100918.53;;;26.90
48894;BMP280;34710;35.798;139.446;2022-10-15T10:20:17;100920.41;;;26.05
48894;BMP280;34710;35.798;139.446;2022-10-15T10:22:49;100919.27;;;26.23
48894;BMP280;34710;35.798;139.446;2022-10-15T10:25:37;100921.92;;;26.11
48894;BMP280;34710;35.798;139.446;2022-10-15T10:28:15;100920.87;;;26.28
48894;BMP280;34710;35.798;139.446;2022-10-15T10:30:58;100922.09;;;26.21
48894;BMP280;34710;35.798;139.446;2022-10-15T10:33:29;100922.93;;;26.46
48894;BMP280;34710;35.798;139.446;2022-10-15T10:35:59;100924.10;;;26.19
48894;BMP280;34710;35.798;139.446;2022-10-15T10:38:31;100924.93;;;26.29
48894;BMP280;34710;35.798;139.446;2022-10-15T10:41:03;100925.25;;;25.91
48894;BMP280;34710;35.798;139.446;2022-10-15T10:43:35;100928.74;;;26.14
48894;BMP280;34710;35.798;139.446;2022-10-15T10:46:15;100929.78;;;25.66
48894;BMP280;34710;35.798;139.446;2022-10-15T10:48:47;100931.23;;;25.78
48894;BMP280;34710;35.798;139.446;2022-10-15T10:51:18;100933.89;;;24.99
48894;BMP280;34710;35.798;139.446;2022-10-15T10:53:51;100932.80;;;24.52
48894;BMP280;34710;35.798;139.446;2022-10-15T10:56:24;100931.45;;;24.54
48894;BMP280;34710;35.798;139.446;2022-10-15T10:59:01;100931.91;;;23.79
48894;BMP280;34710;35.798;139.446;2022-10-15T11:01:31;100929.62;;;24.56
48894;BMP280;34710;35.798;139.446;2022-10-15T11:04:00;100933.22;;;24.63
48894;BMP280;34710;35.798;139.446;2022-10-15T11:06:55;100934.73;;;24.31
48894;BMP280;34710;35.798;139.446;2022-10-15T11:09:41;100937.63;;;24.65
48894;BMP280;34710;35.798;139.446;2022-10-15T11:12:43;100942.66;;;25.25
48894;BMP280;34710;35.798;139.446;2022-10-15T11:15:24;100942.22;;;25.01
48894;BMP280;34710;35.798;139.446;2022-10-15T11:18:07;100939.47;;;24.99
48894;BMP280;34710;35.798;139.446;2022-10-15T11:20:53;100940.82;;;25.16
48894;BMP280;34710;35.798;139.446;2022-10-15T11:23:39;100940.97;;;23.36
48894;BMP280;34710;35.798;139.446;2022-10-15T11:26:28;100942.03;;;23.40
48894;BMP280;34710;35.798;139.446;2022-10-15T11:29:09;100939.92;;;22.49
48894;BMP280;34710;35.798;139.446;2022-10-15T11:31:46;100941.03;;;23.02
48894;BMP280;34710;35.798;139.446;2022-10-15T11:34:30;100940.15;;;23.28
48894;BMP280;34710;35.798;139.446;2022-10-15T11:37:14;100945.16;;;23.63
48894;BMP280;34710;35.798;139.446;2022-10-15T11:40:05;100948.31;;;22.86
48894;BMP280;34710;35.798;139.446;2022-10-15T11:42:45;100949.51;;;23.81
48894;BMP280;34710;35.798;139.446;2022-10-15T11:45:57;100954.04;;;24.63
48894;BMP280;34710;35.798;139.446;2022-10-15T11:48:38;100956.45;;;24.45
48894;BMP280;34710;35.798;139.446;2022-10-15T11:51:16;100954.66;;;24.84
48894;BMP280;34710;35.798;139.446;2022-10-15T11:54:06;100959.53;;;24.96
48894;BMP280;34710;35.798;139.446;2022-10-15T11:56:44;100963.26;;;25.33
48894;BMP280;34710;35.798;139.446;2022-10-15T11:59:21;100968.31;;;25.20
48894;BMP280;34710;35.798;139.446;2022-10-15T12:01:58;100964.62;;;25.18
48894;BMP280;34710;35.798;139.446;2022-10-15T12:04:35;100961.92;;;25.70
48894;BMP280;34710;35.798;139.446;2022-10-15T12:07:10;100961.62;;;25.00
48894;BMP280;34710;35.798;139.446;2022-10-15T12:09:45;100963.68;;;25.04
48894;BMP280;34710;35.798;139.446;2022-10-15T12:12:29;100962.73;;;25.05
48894;BMP280;34710;35.798;139.446;2022-10-15T12:15:14;100965.20;;;24.74
48894;BMP280;34710;35.798;139.446;2022-10-15T12:18:07;100966.28;;;25.13
48894;BMP280;34710;35.798;139.446;2022-10-15T12:20:41;100971.05;;;24.95
48894;BMP280;34710;35.798;139.446;2022-10-15T12:23:23;100969.94;;;24.65
48894;BMP280;34710;35.798;139.446;2022-10-15T12:25:53;100973.08;;;24.60
48894;BMP280;34710;35.798;139.446;2022-10-15T12:28:24;100974.93;;;24.09
48894;BMP280;34710;35.798;139.446;2022-10-15T12:30:59;100980.98;;;24.66
48894;BMP280;34710;35.798;139.446;2022-10-15T12:33:38;100986.49;;;24.83
48894;BMP280;34710;35.798;139.446;2022-10-15T12:36:24;100986.05;;;24.96
48894;BMP280;34710;35.798;139.446;2022-10-15T12:38:57;100982.60;;;25.00
48894;BMP280;34710;35.798;139.446;2022-10-15T12:41:41;100984.11;;;25.04
48894;BMP280;34710;35.798;139.446;2022-10-15T12:44:19;100987.14;;;24.56
48894;BMP280;34710;35.798;139.446;2022-10-15T12:46:49;100981.28;;;24.84
48894;BMP280;34710;35.798;139.446;2022-10-15T12:49:56;100981.46;;;25.28
48894;BMP280;34710;35.798;139.446;2022-10-15T12:53:01;100982.30;;;25.55
48894;BMP280;34710;35.798;139.446;2022-10-15T12:55:34;100979.88;;;25.08
48894;BMP280;34710;35.798;139.446;2022-10-15T12:58:15;100979.47;;;25.18
48894;BMP280;34710;35.798;139.446;2022-10-15T13:01:05;100978.93;;;24.48
48894;BMP280;34710;35.798;139.446;2022-10-15T13:03:37;100976.78;;;23.79
48894;BMP280;34710;35.798;139.446;2022-10-15T13:06:31;100978.98;;;24.52
48894;BMP280;34710;35.798;139.446;2022-10-15T13:09:14;100976.59;;;24.63
48894;BMP280;34710;35.798;139.446;2022-10-15T13:11:48;100977.96;;;24.60
48894;BMP280;34710;35.798;139.446;2022-10-15T13:14:26;100976.09;;;24.78
48894;BMP280;34710;35.798;139.446;2022-10-15T13:16:57;100978.83;;;24.92
48894;BMP280;34710;35.798;139.446;2022-10-15T13:19:29;100979.49;;;24.97
48894;BMP280;34710;35.798;139.446;2022-10-15T13:22:02;100975.45;;;24.90
48894;BMP280;34710;35.798;139.446;2022-10-15T13:24:41;100974.16;;;24.90
48894;BMP280;34710;35.798;139.446;2022-10-15T13:27:15;100978.35;;;24.87
48894;BMP280;34710;35.798;139.446;2022-10-15T13:29:57;100977.05;;;24.69
48894;BMP280;34710;35.798;139.446;2022-10-15T13:32:29;100974.94;;;24.57
48894;BMP280;34710;35.798;139.446;2022-10-15T13:34:59;100978.28;;;24.58
48894;BMP280;34710;35.798;139.446;2022-10-15T13:37:32;100979.13;;;24.33
48894;BMP280;34710;35.798;139.446;2022-10-15T13:40:05;100980.93;;;24.92
48894;BMP280;34710;35.798;139.446;2022-10-15T13:42:35;100983.06;;;24.89
48894;BMP280;34710;35.798;139.446;2022-10-15T13:45:16;100982.09;;;25.00
48894;BMP280;34710;35.798;139.446;2022-10-15T13:47:49;100981.11;;;24.80
48894;BMP280;34710;35.798;139.446;2022-10-15T13:50:21;100980.20;;;24.80
48894;BMP280;34710;35.798;139.446;2022-10-15T13:52:56;100980.37;;;24.62
48894;BMP280;34710;35.798;139.446;2022-10-15T13:55:28;100978.58;;;24.90
48894;BMP280;34710;35.798;139.446;2022-10-15T13:58:01;100975.95;;;24.91
48894;BMP280;34710;35.798;139.446;2022-10-15T14:00:34;100978.34;;;24.79
48894;BMP280;34710;35.798;139.446;2022-10-15T14:03:13;100974.41;;;24.67
48894;BMP280;34710;35.798;139.446;2022-10-15T14:05:42;100975.27;;;24.76
48894;BMP280;34710;35.798;139.446;2022-10-15T14:08:16;100973.00;;;25.10